sensor_id;sensor_type;location;lat;lon;timestamp;P1;durP1;ratioP1;P2;durP2;ratioP2
52456;SDS011;38369;52.840;7.082;2024-02-23T00:01:06;0.50;;;0.50;;
52456;SDS011;38369;52.840;7.082;2024-02-23T00:03:36;0.50;;;0.50;;
52456;SDS011;38369;52.840;7.082;2024-02-23T00:06:02;1.92;;;0.80;;
52456;SDS011;38369;52.840;7.082;2024-02-23T00:08:28;1.00;;;0.80;;
52456;SDS011;38369;52.840;7.082;2024-02-23T00:10:54;1.58;;;0.80;;
52456;SDS011;38369;52.840;7.082;2024-02-23T00:13:20;2.55;;;0.80;;
52456;SDS011;38369;52.840;7.082;2024-02-23T00:15:47;1.50;;;0.77;;
52456;SDS011;38369;52.840;7.082;2024-02-23T00:18:13;1.08;;;0.70;;
52456;SDS011;38369;52.840;7.082;2024-02-23T00:20:41;2.95;;;0.85;;
52456;SDS011;38369;52.840;7.082;2024-02-23T00:23:07;3.15;;;0.95;;
52456;SDS011;38369;52.840;7.082;2024-02-23T00:25:33;2.75;;;0.80;;
52456;SDS011;38369;52.840;7.082;2024-02-23T00:27:59;3.97;;;1.48;;
52456;SDS011;38369;52.840;7.082;2024-02-23T00:30:25;0.88;;;0.70;;
52456;SDS011;38369;52.840;7.082;2024-02-23T00:32:52;4.47;;;1.20;;
52456;SDS011;38369;52.840;7.082;2024-02-23T00:35:18;3.80;;;1.00;;
52456;SDS011;38369;52.840;7.082;2024-02-23T00:37:44;1.98;;;1.00;;
52456;SDS011;38369;52.840;7.082;2024-02-23T00:40:10;1.70;;;0.90;;
52456;SDS011;38369;52.840;7.082;2024-02-23T00:42:37;5.28;;;1.48;;
52456;SDS011;38369;52.840;7.082;2024-02-23T00:45:03;2.92;;;0.80;;
52456;SDS011;38369;52.840;7.082;2024-02-23T00:47:29;1.90;;;0.68;;
52456;SDS011;38369;52.840;7.082;2024-02-23T00:49:55;3.15;;;0.85;;
52456;SDS011;38369;52.840;7.082;2024-02-23T00:52:21;1.60;;;0.88;;
52456;SDS011;38369;52.840;7.082;2024-02-23T00:54:47;2.28;;;0.80;;
52456;SDS011;38369;52.840;7.082;2024-02-23T00:57:13;2.15;;;0.90;;
52456;SDS011;38369;52.840;7.082;2024-02-23T00:59:40;1.23;;;1.00;;
52456;SDS011;38369;52.840;7.082;2024-02-23T01:02:07;1.33;;;0.90;;
52456;SDS011;38369;52.840;7.082;2024-02-23T01:04:33;1.20;;;1.05;;
52456;SDS011;38369;52.840;7.082;2024-02-23T01:06:59;3.15;;;1.73;;
52456;SDS011;38369;52.840;7.082;2024-02-23T01:09:25;3.08;;;1.20;;
52456;SDS011;38369;52.840;7.082;2024-02-23T01:11:51;1.40;;;0.90;;
52456;SDS011;38369;52.840;7.082;2024-02-23T01:14:17;1.58;;;1.15;;
52456;SDS011;38369;52.840;7.082;2024-02-23T01:16:43;1.25;;;1.00;;
52456;SDS011;38369;52.840;7.082;2024-02-23T01:19:09;4.57;;;1.35;;
52456;SDS011;38369;52.840;7.082;2024-02-23T01:21:35;1.48;;;1.17;;
52456;SDS011;38369;52.840;7.082;2024-02-23T01:24:02;2.33;;;1.75;;
52456;SDS011;38369;52.840;7.082;2024-02-23T01:26:29;1.67;;;1.45;;
52456;SDS011;38369;52.840;7.082;2024-02-23T01:28:55;2.83;;;1.50;;
52456;SDS011;38369;52.840;7.082;2024-02-23T01:31:21;2.75;;;1.45;;
52456;SDS011;38369;52.840;7.082;2024-02-23T01:33:47;2.05;;;1.20;;
52456;SDS011;38369;52.840;7.082;2024-02-23T01:36:15;2.95;;;1.27;;
52456;SDS011;38369;52.840;7.082;2024-02-23T01:38:44;3.80;;;1.40;;
52456;SDS011;38369;52.840;7.082;2024-02-23T01:41:22;1.58;;;1.27;;
52456;SDS011;38369;52.840;7.082;2024-02-23T01:43:48;3.47;;;1.52;;
52456;SDS011;38369;52.840;7.082;2024-02-23T01:46:15;3.47;;;1.50;;
52456;SDS011;38369;52.840;7.082;2024-02-23T01:48:43;2.53;;;1.35;;
52456;SDS011;38369;52.840;7.082;2024-02-23T01:51:11;2.45;;;1.40;;
52456;SDS011;38369;52.840;7.082;2024-02-23T01:53:37;2.70;;;1.67;;
52456;SDS011;38369;52.840;7.082;2024-02-23T01:56:06;4.72;;;1.70;;
52456;SDS011;38369;52.840;7.082;2024-02-23T01:58:33;3.05;;;1.70;;
52456;SDS011;38369;52.840;7.082;2024-02-23T02:01:00;4.38;;;1.90;;
52456;SDS011;38369;52.840;7.082;2024-02-23T02:03:26;4.18;;;1.65;;
52456;SDS011;38369;52.840;7.082;2024-02-23T02:05:52;2.60;;;1.50;;
52456;SDS011;38369;52.840;7.082;2024-02-23T02:08:19;4.03;;;1.58;;
52456;SDS011;38369;52.840;7.082;2024-02-23T02:10:45;7.10;;;1.90;;
52456;SDS011;38369;52.840;7.082;2024-02-23T02:13:12;3.70;;;2.00;;
52456;SDS011;38369;52.840;7.082;2024-02-23T02:15:39;12.77;;;3.92;;
52456;SDS011;38369;52.840;7.082;2024-02-23T02:18:05;6.03;;;1.92;;
52456;SDS011;38369;52.840;7.082;2024-02-23T02:20:34;6.90;;;2.33;;
52456;SDS011;38369;52.840;7.082;2024-02-23T02:23:02;5.38;;;2.10;;
52456;SDS011;38369;52.840;7.082;2024-02-23T02:25:29;6.32;;;1.92;;
52456;SDS011;38369;52.840;7.082;2024-02-23T02:28:00;5.47;;;2.45;;
52456;SDS011;38369;52.840;7.082;2024-02-23T02:30:28;6.05;;;2.65;;
52456;SDS011;38369;52.840;7.082;2024-02-23T02:32:54;6.60;;;2.58;;
52456;SDS011;38369;52.840;7.082;2024-02-23T02:35:21;7.40;;;2.60;;
52456;SDS011;38369;52.840;7.082;2024-02-23T02:37:47;7.97;;;2.92;;
52456;SDS011;38369;52.840;7.082;2024-02-23T02:40:14;10.18;;;3.25;;
52456;SDS011;38369;52.840;7.082;2024-02-23T02:42:40;9.07;;;3.20;;
52456;SDS011;38369;52.840;7.082;2024-02-23T02:45:07;11.73;;;4.45;;
52456;SDS011;38369;52.840;7.082;2024-02-23T02:47:33;7.50;;;3.38;;
52456;SDS011;38369;52.840;7.082;2024-02-23T02:50:00;10.95;;;3.78;;
52456;SDS011;38369;52.840;7.082;2024-02-23T02:52:26;12.82;;;3.30;;
52456;SDS011;38369;52.840;7.082;2024-02-23T02:54:53;8.88;;;3.38;;
52456;SDS011;38369;52.840;7.082;2024-02-23T02:57:19;8.93;;;3.05;;
52456;SDS011;38369;52.840;7.082;2024-02-23T02:59:46;13.93;;;4.03;;
52456;SDS011;38369;52.840;7.082;2024-02-23T03:02:15;9.40;;;3.47;;
52456;SDS011;38369;52.840;7.082;2024-02-23T03:04:48;5.57;;;3.03;;
52456;SDS011;38369;52.840;7.082;2024-02-23T03:07:14;7.93;;;3.28;;
52456;SDS011;38369;52.840;7.082;2024-02-23T03:09:40;12.20;;;3.53;;
52456;SDS011;38369;52.840;7.082;2024-02-23T03:12:07;7.38;;;2.75;;
52456;SDS011;38369;52.840;7.082;2024-02-23T03:14:33;6.43;;;2.70;;
52456;SDS011;38369;52.840;7.082;2024-02-23T03:16:59;5.80;;;2.28;;
52456;SDS011;38369;52.840;7.082;2024-02-23T03:19:26;5.40;;;2.88;;
52456;SDS011;38369;52.840;7.082;2024-02-23T03:21:52;3.63;;;2.50;;
52456;SDS011;38369;52.840;7.082;2024-02-23T03:24:21;5.43;;;2.20;;
52456;SDS011;38369;52.840;7.082;2024-02-23T03:26:47;10.15;;;2.25;;
52456;SDS011;38369;52.840;7.082;2024-02-23T03:29:13;4.80;;;1.70;;
52456;SDS011;38369;52.840;7.082;2024-02-23T03:31:39;3.97;;;1.60;;
52456;SDS011;38369;52.840;7.082;2024-02-23T03:34:06;5.32;;;1.92;;
52456;SDS011;38369;52.840;7.082;2024-02-23T03:36:33;4.75;;;2.10;;
52456;SDS011;38369;52.840;7.082;2024-02-23T03:38:59;14.63;;;2.70;;
52456;SDS011;38369;52.840;7.082;2024-02-23T03:41:25;7.32;;;2.55;;
52456;SDS011;38369;52.840;7.082;2024-02-23T03:43:51;7.18;;;3.33;;
52456;SDS011;38369;52.840;7.082;2024-02-23T03:46:17;5.50;;;2.30;;
52456;SDS011;38369;52.840;7.082;2024-02-23T03:48:44;4.43;;;1.48;;
52456;SDS011;38369;52.840;7.082;2024-02-23T03:51:11;6.07;;;2.13;;
52456;SDS011;38369;52.840;7.082;2024-02-23T03:53:37;5.20;;;2.00;;
52456;SDS011;38369;52.840;7.082;2024-02-23T03:56:03;7.28;;;1.60;;
52456;SDS011;38369;52.840;7.082;2024-02-23T03:58:29;5.97;;;1.98;;
52456;SDS011;38369;52.840;7.082;2024-02-23T04:00:55;4.20;;;1.52;;
52456;SDS011;38369;52.840;7.082;2024-02-23T04:03:21;3.28;;;1.73;;
52456;SDS011;38369;52.840;7.082;2024-02-23T04:05:47;2.25;;;1.90;;
52456;SDS011;38369;52.840;7.082;2024-02-23T04:08:16;12.25;;;3.15;;
52456;SDS011;38369;52.840;7.082;2024-02-23T04:10:42;8.40;;;2.53;;
52456;SDS011;38369;52.840;7.082;2024-02-23T04:13:08;6.05;;;2.20;;
52456;SDS011;38369;52.840;7.082;2024-02-23T04:15:35;3.58;;;2.65;;
52456;SDS011;38369;52.840;7.082;2024-02-23T04:18:01;9.82;;;2.80;;
52456;SDS011;38369;52.840;7.082;2024-02-23T04:20:28;5.47;;;2.92;;
52456;SDS011;38369;52.840;7.082;2024-02-23T04:22:54;7.72;;;2.50;;
52456;SDS011;38369;52.840;7.082;2024-02-23T04:25:20;6.13;;;2.90;;
52456;SDS011;38369;52.840;7.082;2024-02-23T04:27:46;5.95;;;2.78;;
52456;SDS011;38369;52.840;7.082;2024-02-23T04:30:12;9.40;;;3.75;;
52456;SDS011;38369;52.840;7.082;2024-02-23T04:32:38;5.10;;;2.67;;
52456;SDS011;38369;52.840;7.082;2024-02-23T04:35:05;7.75;;;3.15;;
52456;SDS011;38369;52.840;7.082;2024-02-23T04:37:31;6.45;;;2.70;;
52456;SDS011;38369;52.840;7.082;2024-02-23T04:39:57;6.72;;;2.42;;
52456;SDS011;38369;52.840;7.082;2024-02-23T04:42:23;8.80;;;2.50;;
52456;SDS011;38369;52.840;7.082;2024-02-23T04:44:49;10.20;;;3.58;;
52456;SDS011;38369;52.840;7.082;2024-02-23T04:47:15;9.35;;;3.10;;
52456;SDS011;38369;52.840;7.082;2024-02-23T04:49:41;7.10;;;2.05;;
52456;SDS011;38369;52.840;7.082;2024-02-23T04:52:07;3.00;;;1.80;;
52456;SDS011;38369;52.840;7.082;2024-02-23T04:54:33;5.53;;;2.20;;
52456;SDS011;38369;52.840;7.082;2024-02-23T04:57:00;6.32;;;2.70;;
52456;SDS011;38369;52.840;7.082;2024-02-23T04:59:26;5.65;;;3.10;;
52456;SDS011;38369;52.840;7.082;2024-02-23T05:01:53;8.65;;;4.00;;
52456;SDS011;38369;52.840;7.082;2024-02-23T05:04:19;9.90;;;4.30;;
52456;SDS011;38369;52.840;7.082;2024-02-23T05:06:45;9.18;;;4.65;;
52456;SDS011;38369;52.840;7.082;2024-02-23T05:09:11;12.90;;;4.20;;
52456;SDS011;38369;52.840;7.082;2024-02-23T05:11:37;7.40;;;4.88;;
52456;SDS011;38369;52.840;7.082;2024-02-23T05:14:03;8.63;;;5.45;;
52456;SDS011;38369;52.840;7.082;2024-02-23T05:16:29;14.70;;;5.93;;
52456;SDS011;38369;52.840;7.082;2024-02-23T05:18:55;13.25;;;5.47;;
52456;SDS011;38369;52.840;7.082;2024-02-23T05:21:21;10.75;;;5.03;;
52456;SDS011;38369;52.840;7.082;2024-02-23T05:23:48;13.07;;;5.95;;
52456;SDS011;38369;52.840;7.082;2024-02-23T05:26:14;10.27;;;4.95;;
52456;SDS011;38369;52.840;7.082;2024-02-23T05:28:40;13.10;;;5.32;;
52456;SDS011;38369;52.840;7.082;2024-02-23T05:31:06;20.13;;;6.43;;
52456;SDS011;38369;52.840;7.082;2024-02-23T05:33:32;11.02;;;4.82;;
52456;SDS011;38369;52.840;7.082;2024-02-23T05:35:58;7.63;;;4.97;;
52456;SDS011;38369;52.840;7.082;2024-02-23T05:38:24;8.27;;;5.22;;
52456;SDS011;38369;52.840;7.082;2024-02-23T05:40:50;13.27;;;5.50;;
52456;SDS011;38369;52.840;7.082;2024-02-23T05:43:16;9.73;;;4.50;;
52456;SDS011;38369;52.840;7.082;2024-02-23T05:45:42;10.43;;;4.22;;
52456;SDS011;38369;52.840;7.082;2024-02-23T05:48:10;8.10;;;4.47;;
52456;SDS011;38369;52.840;7.082;2024-02-23T05:50:36;10.00;;;4.25;;
52456;SDS011;38369;52.840;7.082;2024-02-23T05:53:02;9.13;;;4.70;;
52456;SDS011;38369;52.840;7.082;2024-02-23T05:55:29;9.10;;;4.22;;
52456;SDS011;38369;52.840;7.082;2024-02-23T05:57:55;8.43;;;4.55;;
52456;SDS011;38369;52.840;7.082;2024-02-23T06:00:22;12.95;;;4.82;;
52456;SDS011;38369;52.840;7.082;2024-02-23T06:02:48;11.60;;;5.70;;
52456;SDS011;38369;52.840;7.082;2024-02-23T06:05:14;11.18;;;5.38;;
52456;SDS011;38369;52.840;7.082;2024-02-23T06:07:40;12.82;;;5.63;;
52456;SDS011;38369;52.840;7.082;2024-02-23T06:10:06;14.52;;;5.53;;
52456;SDS011;38369;52.840;7.082;2024-02-23T06:12:33;11.07;;;4.57;;
52456;SDS011;38369;52.840;7.082;2024-02-23T06:15:01;11.57;;;5.00;;
52456;SDS011;38369;52.840;7.082;2024-02-23T06:17:34;12.27;;;4.93;;
52456;SDS011;38369;52.840;7.082;2024-02-23T06:20:00;12.10;;;4.93;;
52456;SDS011;38369;52.840;7.082;2024-02-23T06:22:26;10.45;;;4.72;;
52456;SDS011;38369;52.840;7.082;2024-02-23T06:24:52;11.77;;;4.78;;
52456;SDS011;38369;52.840;7.082;2024-02-23T06:27:18;18.70;;;5.22;;
52456;SDS011;38369;52.840;7.082;2024-02-23T06:29:44;12.70;;;4.78;;
52456;SDS011;38369;52.840;7.082;2024-02-23T06:32:10;14.30;;;4.75;;
52456;SDS011;38369;52.840;7.082;2024-02-23T06:34:36;12.52;;;5.82;;
52456;SDS011;38369;52.840;7.082;2024-02-23T06:37:02;11.27;;;4.75;;
52456;SDS011;38369;52.840;7.082;2024-02-23T06:39:28;9.02;;;4.50;;
52456;SDS011;38369;52.840;7.082;2024-02-23T06:41:55;8.43;;;4.50;;
52456;SDS011;38369;52.840;7.082;2024-02-23T06:44:22;13.98;;;5.00;;
52456;SDS011;38369;52.840;7.082;2024-02-23T06:46:48;8.75;;;5.85;;
52456;SDS011;38369;52.840;7.082;2024-02-23T06:49:14;12.80;;;5.35;;
52456;SDS011;38369;52.840;7.082;2024-02-23T06:51:40;15.40;;;5.07;;
52456;SDS011;38369;52.840;7.082;2024-02-23T06:54:07;8.23;;;5.40;;
52456;SDS011;38369;52.840;7.082;2024-02-23T06:56:33;12.50;;;5.53;;
52456;SDS011;38369;52.840;7.082;2024-02-23T06:58:59;7.90;;;4.68;;
52456;SDS011;38369;52.840;7.082;2024-02-23T07:01:26;18.08;;;5.05;;
52456;SDS011;38369;52.840;7.082;2024-02-23T07:03:52;10.88;;;4.47;;
52456;SDS011;38369;52.840;7.082;2024-02-23T07:06:19;8.13;;;4.32;;
52456;SDS011;38369;52.840;7.082;2024-02-23T07:08:45;8.63;;;4.38;;
52456;SDS011;38369;52.840;7.082;2024-02-23T07:11:11;17.35;;;5.55;;
52456;SDS011;38369;52.840;7.082;2024-02-23T07:13:37;13.68;;;4.65;;
52456;SDS011;38369;52.840;7.082;2024-02-23T07:16:03;8.60;;;3.80;;
52456;SDS011;38369;52.840;7.082;2024-02-23T07:18:30;13.10;;;4.47;;
52456;SDS011;38369;52.840;7.082;2024-02-23T07:20:56;12.02;;;4.88;;
52456;SDS011;38369;52.840;7.082;2024-02-23T07:23:22;10.20;;;3.75;;
52456;SDS011;38369;52.840;7.082;2024-02-23T07:25:48;8.07;;;3.78;;
52456;SDS011;38369;52.840;7.082;2024-02-23T07:28:16;9.32;;;3.22;;
52456;SDS011;38369;52.840;7.082;2024-02-23T07:30:45;12.85;;;4.38;;
52456;SDS011;38369;52.840;7.082;2024-02-23T07:33:11;8.88;;;3.17;;
52456;SDS011;38369;52.840;7.082;2024-02-23T07:35:37;11.05;;;4.47;;
52456;SDS011;38369;52.840;7.082;2024-02-23T07:38:03;9.15;;;3.10;;
52456;SDS011;38369;52.840;7.082;2024-02-23T07:40:29;11.18;;;3.67;;
52456;SDS011;38369;52.840;7.082;2024-02-23T07:42:57;8.00;;;3.53;;
52456;SDS011;38369;52.840;7.082;2024-02-23T07:45:23;7.95;;;3.53;;
52456;SDS011;38369;52.840;7.082;2024-02-23T07:47:49;10.65;;;3.17;;
52456;SDS011;38369;52.840;7.082;2024-02-23T07:50:15;9.63;;;3.55;;
52456;SDS011;38369;52.840;7.082;2024-02-23T07:52:43;10.93;;;3.60;;
52456;SDS011;38369;52.840;7.082;2024-02-23T07:55:09;7.63;;;2.90;;
52456;SDS011;38369;52.840;7.082;2024-02-23T07:57:35;9.07;;;2.97;;
52456;SDS011;38369;52.840;7.082;2024-02-23T08:00:03;5.72;;;2.80;;
52456;SDS011;38369;52.840;7.082;2024-02-23T08:02:29;7.80;;;3.15;;
52456;SDS011;38369;52.840;7.082;2024-02-23T08:04:55;6.13;;;2.85;;
52456;SDS011;38369;52.840;7.082;2024-02-23T08:07:22;8.95;;;2.90;;
52456;SDS011;38369;52.840;7.082;2024-02-23T08:09:48;10.15;;;2.90;;
52456;SDS011;38369;52.840;7.082;2024-02-23T08:12:14;5.85;;;2.88;;
52456;SDS011;38369;52.840;7.082;2024-02-23T08:14:41;8.35;;;2.65;;
52456;SDS011;38369;52.840;7.082;2024-02-23T08:17:09;8.65;;;2.50;;
52456;SDS011;38369;52.840;7.082;2024-02-23T08:19:35;8.90;;;3.70;;
52456;SDS011;38369;52.840;7.082;2024-02-23T08:22:01;15.85;;;4.22;;
52456;SDS011;38369;52.840;7.082;2024-02-23T08:24:27;7.65;;;2.55;;
52456;SDS011;38369;52.840;7.082;2024-02-23T08:26:53;6.88;;;2.47;;
52456;SDS011;38369;52.840;7.082;2024-02-23T08:29:19;7.13;;;2.53;;
52456;SDS011;38369;52.840;7.082;2024-02-23T08:31:45;12.15;;;2.67;;
52456;SDS011;38369;52.840;7.082;2024-02-23T08:34:11;7.93;;;2.75;;
52456;SDS011;38369;52.840;7.082;2024-02-23T08:36:37;5.57;;;2.90;;
52456;SDS011;38369;52.840;7.082;2024-02-23T08:39:03;8.48;;;2.35;;
52456;SDS011;38369;52.840;7.082;2024-02-23T08:41:29;5.35;;;1.95;;
52456;SDS011;38369;52.840;7.082;2024-02-23T08:43:55;7.03;;;2.22;;
52456;SDS011;38369;52.840;7.082;2024-02-23T08:46:21;8.00;;;2.33;;
52456;SDS011;38369;52.840;7.082;2024-02-23T08:48:47;6.00;;;2.22;;
52456;SDS011;38369;52.840;7.082;2024-02-23T08:51:14;6.80;;;2.10;;
52456;SDS011;38369;52.840;7.082;2024-02-23T08:53:40;4.97;;;2.00;;
52456;SDS011;38369;52.840;7.082;2024-02-23T08:56:06;4.93;;;1.92;;
52456;SDS011;38369;52.840;7.082;2024-02-23T08:58:33;7.97;;;2.67;;
52456;SDS011;38369;52.840;7.082;2024-02-23T09:00:59;15.45;;;3.42;;
52456;SDS011;38369;52.840;7.082;2024-02-23T09:03:25;8.82;;;2.60;;
52456;SDS011;38369;52.840;7.082;2024-02-23T09:05:51;7.10;;;2.75;;
52456;SDS011;38369;52.840;7.082;2024-02-23T09:08:17;5.88;;;2.17;;
52456;SDS011;38369;52.840;7.082;2024-02-23T09:10:43;6.78;;;2.00;;
52456;SDS011;38369;52.840;7.082;2024-02-23T09:13:10;6.13;;;1.90;;
52456;SDS011;38369;52.840;7.082;2024-02-23T09:15:36;12.57;;;2.55;;
52456;SDS011;38369;52.840;7.082;2024-02-23T09:18:02;5.30;;;1.90;;
52456;SDS011;38369;52.840;7.082;2024-02-23T09:20:29;6.32;;;2.13;;
52456;SDS011;38369;52.840;7.082;2024-02-23T09:22:55;8.30;;;2.20;;
52456;SDS011;38369;52.840;7.082;2024-02-23T09:25:21;10.38;;;2.20;;
52456;SDS011;38369;52.840;7.082;2024-02-23T09:27:48;8.93;;;3.15;;
52456;SDS011;38369;52.840;7.082;2024-02-23T09:30:14;8.93;;;2.00;;
52456;SDS011;38369;52.840;7.082;2024-02-23T09:32:40;9.40;;;2.42;;
52456;SDS011;38369;52.840;7.082;2024-02-23T09:35:06;8.43;;;2.20;;
52456;SDS011;38369;52.840;7.082;2024-02-23T09:37:32;8.85;;;2.50;;
52456;SDS011;38369;52.840;7.082;2024-02-23T09:39:59;7.15;;;2.20;;
52456;SDS011;38369;52.840;7.082;2024-02-23T09:42:25;7.78;;;2.10;;
52456;SDS011;38369;52.840;7.082;2024-02-23T09:44:58;8.07;;;2.05;;
52456;SDS011;38369;52.840;7.082;2024-02-23T09:47:25;7.00;;;1.98;;
52456;SDS011;38369;52.840;7.082;2024-02-23T09:49:52;8.73;;;2.33;;
52456;SDS011;38369;52.840;7.082;2024-02-23T09:52:18;9.52;;;2.88;;
52456;SDS011;38369;52.840;7.082;2024-02-23T09:54:44;8.82;;;1.92;;
52456;SDS011;38369;52.840;7.082;2024-02-23T09:57:10;7.93;;;2.08;;
52456;SDS011;38369;52.840;7.082;2024-02-23T09:59:37;5.63;;;1.65;;
52456;SDS011;38369;52.840;7.082;2024-02-23T10:02:09;6.50;;;1.73;;
52456;SDS011;38369;52.840;7.082;2024-02-23T10:04:37;5.93;;;1.52;;
52456;SDS011;38369;52.840;7.082;2024-02-23T10:07:04;5.53;;;1.63;;
52456;SDS011;38369;52.840;7.082;2024-02-23T10:09:30;3.80;;;1.75;;
52456;SDS011;38369;52.840;7.082;2024-02-23T10:11:56;11.73;;;2.50;;
52456;SDS011;38369;52.840;7.082;2024-02-23T10:14:23;11.98;;;1.45;;
52456;SDS011;38369;52.840;7.082;2024-02-23T10:16:49;9.80;;;1.90;;
52456;SDS011;38369;52.840;7.082;2024-02-23T10:19:22;8.18;;;1.70;;
52456;SDS011;38369;52.840;7.082;2024-02-23T10:21:53;7.03;;;2.17;;
52456;SDS011;38369;52.840;7.082;2024-02-23T10:24:19;9.52;;;2.03;;
52456;SDS011;38369;52.840;7.082;2024-02-23T10:26:46;5.38;;;1.30;;
52456;SDS011;38369;52.840;7.082;2024-02-23T10:29:12;5.93;;;1.55;;
52456;SDS011;38369;52.840;7.082;2024-02-23T10:31:38;10.02;;;2.30;;
52456;SDS011;38369;52.840;7.082;2024-02-23T10:34:06;8.68;;;1.77;;
52456;SDS011;38369;52.840;7.082;2024-02-23T10:36:40;4.70;;;1.83;;
52456;SDS011;38369;52.840;7.082;2024-02-23T10:39:10;5.80;;;1.80;;
52456;SDS011;38369;52.840;7.082;2024-02-23T10:41:37;7.55;;;1.40;;
52456;SDS011;38369;52.840;7.082;2024-02-23T10:44:04;11.65;;;1.52;;
52456;SDS011;38369;52.840;7.082;2024-02-23T10:46:31;6.30;;;1.55;;
52456;SDS011;38369;52.840;7.082;2024-02-23T10:48:58;15.10;;;2.20;;
52456;SDS011;38369;52.840;7.082;2024-02-23T10:51:24;7.35;;;2.20;;
52456;SDS011;38369;52.840;7.082;2024-02-23T10:53:51;7.80;;;1.77;;
52456;SDS011;38369;52.840;7.082;2024-02-23T10:56:18;5.95;;;1.90;;
52456;SDS011;38369;52.840;7.082;2024-02-23T10:58:44;8.35;;;1.88;;
52456;SDS011;38369;52.840;7.082;2024-02-23T11:01:11;5.57;;;1.92;;
52456;SDS011;38369;52.840;7.082;2024-02-23T11:03:38;6.75;;;1.40;;
52456;SDS011;38369;52.840;7.082;2024-02-23T11:06:06;3.58;;;1.30;;
52456;SDS011;38369;52.840;7.082;2024-02-23T11:08:32;8.32;;;1.75;;
52456;SDS011;38369;52.840;7.082;2024-02-23T11:11:07;6.93;;;1.50;;
52456;SDS011;38369;52.840;7.082;2024-02-23T11:13:34;6.60;;;2.42;;
52456;SDS011;38369;52.840;7.082;2024-02-23T11:16:01;8.23;;;1.90;;
52456;SDS011;38369;52.840;7.082;2024-02-23T11:18:28;5.13;;;1.58;;
52456;SDS011;38369;52.840;7.082;2024-02-23T11:20:55;5.15;;;1.83;;
52456;SDS011;38369;52.840;7.082;2024-02-23T11:23:24;6.47;;;1.30;;
52456;SDS011;38369;52.840;7.082;2024-02-23T11:28:28;5.32;;;1.30;;
52456;SDS011;38369;52.840;7.082;2024-02-23T11:30:56;10.52;;;2.67;;
52456;SDS011;38369;52.840;7.082;2024-02-23T11:35:53;7.25;;;1.73;;
52456;SDS011;38369;52.840;7.082;2024-02-23T11:38:20;6.50;;;1.90;;
52456;SDS011;38369;52.840;7.082;2024-02-23T11:40:47;5.60;;;1.67;;
52456;SDS011;38369;52.840;7.082;2024-02-23T11:43:14;10.18;;;2.33;;
52456;SDS011;38369;52.840;7.082;2024-02-23T11:45:40;6.53;;;1.48;;
52456;SDS011;38369;52.840;7.082;2024-02-23T11:48:06;6.30;;;1.30;;
52456;SDS011;38369;52.840;7.082;2024-02-23T11:50:32;5.95;;;1.75;;
52456;SDS011;38369;52.840;7.082;2024-02-23T11:52:59;5.95;;;1.27;;
52456;SDS011;38369;52.840;7.082;2024-02-23T11:55:29;3.92;;;1.55;;
52456;SDS011;38369;52.840;7.082;2024-02-23T11:57:55;6.55;;;1.73;;
52456;SDS011;38369;52.840;7.082;2024-02-23T12:00:23;5.20;;;1.80;;
52456;SDS011;38369;52.840;7.082;2024-02-23T12:02:49;3.70;;;1.48;;
52456;SDS011;38369;52.840;7.082;2024-02-23T12:05:15;6.07;;;1.95;;
52456;SDS011;38369;52.840;7.082;2024-02-23T12:07:42;7.70;;;2.40;;
52456;SDS011;38369;52.840;7.082;2024-02-23T12:10:08;6.30;;;1.55;;
52456;SDS011;38369;52.840;7.082;2024-02-23T12:12:36;4.63;;;1.48;;
52456;SDS011;38369;52.840;7.082;2024-02-23T12:15:02;5.93;;;1.58;;
52456;SDS011;38369;52.840;7.082;2024-02-23T12:17:28;8.27;;;2.17;;
52456;SDS011;38369;52.840;7.082;2024-02-23T12:19:58;5.25;;;1.65;;
52456;SDS011;38369;52.840;7.082;2024-02-23T12:22:25;6.63;;;1.77;;
52456;SDS011;38369;52.840;7.082;2024-02-23T12:24:51;7.50;;;1.63;;
52456;SDS011;38369;52.840;7.082;2024-02-23T12:27:17;6.00;;;1.88;;
52456;SDS011;38369;52.840;7.082;2024-02-23T12:29:53;12.80;;;2.22;;
52456;SDS011;38369;52.840;7.082;2024-02-23T12:32:22;7.28;;;1.80;;
52456;SDS011;38369;52.840;7.082;2024-02-23T12:34:48;8.00;;;2.20;;
52456;SDS011;38369;52.840;7.082;2024-02-23T12:37:15;6.40;;;2.25;;
52456;SDS011;38369;52.840;7.082;2024-02-23T12:39:41;4.38;;;1.33;;
52456;SDS011;38369;52.840;7.082;2024-02-23T12:42:07;6.18;;;1.30;;
52456;SDS011;38369;52.840;7.082;2024-02-23T12:44:33;5.00;;;1.73;;
52456;SDS011;38369;52.840;7.082;2024-02-23T12:47:00;8.85;;;2.78;;
52456;SDS011;38369;52.840;7.082;2024-02-23T12:49:26;7.10;;;1.90;;
52456;SDS011;38369;52.840;7.082;2024-02-23T12:51:52;5.30;;;2.10;;
52456;SDS011;38369;52.840;7.082;2024-02-23T12:54:18;5.80;;;1.88;;
52456;SDS011;38369;52.840;7.082;2024-02-23T12:56:44;7.63;;;1.90;;
52456;SDS011;38369;52.840;7.082;2024-02-23T12:59:10;12.88;;;3.38;;
52456;SDS011;38369;52.840;7.082;2024-02-23T13:01:36;5.43;;;1.67;;
52456;SDS011;38369;52.840;7.082;2024-02-23T13:04:04;6.13;;;2.10;;
52456;SDS011;38369;52.840;7.082;2024-02-23T13:06:38;5.25;;;1.92;;
52456;SDS011;38369;52.840;7.082;2024-02-23T13:09:04;10.00;;;2.15;;
52456;SDS011;38369;52.840;7.082;2024-02-23T13:11:33;5.00;;;3.08;;
52456;SDS011;38369;52.840;7.082;2024-02-23T13:13:59;3.65;;;1.55;;
52456;SDS011;38369;52.840;7.082;2024-02-23T13:16:26;5.72;;;1.98;;
52456;SDS011;38369;52.840;7.082;2024-02-23T13:18:52;12.48;;;2.45;;
52456;SDS011;38369;52.840;7.082;2024-02-23T13:21:18;11.18;;;2.10;;
52456;SDS011;38369;52.840;7.082;2024-02-23T13:23:44;5.10;;;1.80;;
52456;SDS011;38369;52.840;7.082;2024-02-23T13:26:10;3.95;;;1.80;;
52456;SDS011;38369;52.840;7.082;2024-02-23T13:28:39;5.80;;;1.63;;
52456;SDS011;38369;52.840;7.082;2024-02-23T13:31:05;5.35;;;1.52;;
52456;SDS011;38369;52.840;7.082;2024-02-23T13:33:31;5.22;;;1.65;;
52456;SDS011;38369;52.840;7.082;2024-02-23T13:35:57;10.13;;;2.00;;
52456;SDS011;38369;52.840;7.082;2024-02-23T13:38:24;4.50;;;2.10;;
52456;SDS011;38369;52.840;7.082;2024-02-23T13:40:50;6.93;;;2.17;;
52456;SDS011;38369;52.840;7.082;2024-02-23T13:43:16;4.43;;;1.50;;
52456;SDS011;38369;52.840;7.082;2024-02-23T13:45:49;5.13;;;2.13;;
52456;SDS011;38369;52.840;7.082;2024-02-23T13:48:16;3.45;;;2.28;;
52456;SDS011;38369;52.840;7.082;2024-02-23T13:50:44;7.18;;;2.10;;
52456;SDS011;38369;52.840;7.082;2024-02-23T13:53:11;10.20;;;2.90;;
52456;SDS011;38369;52.840;7.082;2024-02-23T13:55:37;6.82;;;2.00;;
52456;SDS011;38369;52.840;7.082;2024-02-23T13:58:03;5.40;;;2.15;;
52456;SDS011;38369;52.840;7.082;2024-02-23T14:00:30;5.70;;;2.00;;
52456;SDS011;38369;52.840;7.082;2024-02-23T14:02:56;7.25;;;2.42;;
52456;SDS011;38369;52.840;7.082;2024-02-23T14:05:22;7.53;;;2.30;;
52456;SDS011;38369;52.840;7.082;2024-02-23T14:07:50;9.93;;;2.88;;
52456;SDS011;38369;52.840;7.082;2024-02-23T14:10:18;4.47;;;2.10;;
52456;SDS011;38369;52.840;7.082;2024-02-23T14:12:44;7.05;;;2.17;;
52456;SDS011;38369;52.840;7.082;2024-02-23T14:15:11;5.80;;;1.88;;
52456;SDS011;38369;52.840;7.082;2024-02-23T14:17:38;8.40;;;2.00;;
52456;SDS011;38369;52.840;7.082;2024-02-23T14:20:04;5.63;;;1.90;;
52456;SDS011;38369;52.840;7.082;2024-02-23T14:22:31;5.38;;;2.30;;
52456;SDS011;38369;52.840;7.082;2024-02-23T14:24:57;7.75;;;1.95;;
52456;SDS011;38369;52.840;7.082;2024-02-23T14:27:26;7.35;;;2.20;;
52456;SDS011;38369;52.840;7.082;2024-02-23T14:29:53;7.00;;;2.55;;
52456;SDS011;38369;52.840;7.082;2024-02-23T14:32:19;5.90;;;2.33;;
52456;SDS011;38369;52.840;7.082;2024-02-23T14:34:46;7.82;;;1.75;;
52456;SDS011;38369;52.840;7.082;2024-02-23T14:37:12;5.65;;;1.80;;
52456;SDS011;38369;52.840;7.082;2024-02-23T14:39:39;10.40;;;2.28;;
52456;SDS011;38369;52.840;7.082;2024-02-23T14:42:05;6.00;;;2.15;;
52456;SDS011;38369;52.840;7.082;2024-02-23T14:44:33;6.53;;;2.00;;
52456;SDS011;38369;52.840;7.082;2024-02-23T14:46:59;6.10;;;2.72;;